createdAt,value
2023-05-11T00:01:28.893Z,57.65
2023-05-11T00:03:55.656Z,57.57
2023-05-11T00:06:22.325Z,57.56
2023-05-11T00:08:48.904Z,58.23
2023-05-11T00:11:15.643Z,57.73
2023-05-11T00:13:42.376Z,59.13
2023-05-11T00:16:09.047Z,58.92
2023-05-11T00:18:35.796Z,59.48
2023-05-11T00:21:02.403Z,59.64
2023-05-11T00:23:29.014Z,60.71
2023-05-11T00:25:56.411Z,60.88
2023-05-11T00:28:23.065Z,60.31
2023-05-11T00:30:49.703Z,61.48
2023-05-11T00:33:16.290Z,62.07
2023-05-11T00:35:42.879Z,61.86
2023-05-11T00:38:09.477Z,60.99
2023-05-11T00:40:36.161Z,61.11
2023-05-11T00:43:02.738Z,61.79
2023-05-11T00:45:30.330Z,60.45
2023-05-11T00:47:57.101Z,60.42
2023-05-11T00:50:25.056Z,62.35
2023-05-11T00:52:51.843Z,61.11
2023-05-11T00:55:21.749Z,60.69
2023-05-11T00:57:48.704Z,62.19
2023-05-11T01:00:15.764Z,61.75
2023-05-11T01:02:42.672Z,61.21
2023-05-11T01:05:09.667Z,61.20
2023-05-11T01:07:46.347Z,61.33
2023-05-11T01:10:50.437Z,63.30
2023-05-11T01:13:43.798Z,64.15
2023-05-11T01:16:21.661Z,62.58
2023-05-11T01:19:00.972Z,63.19
2023-05-11T01:21:31.057Z,61.82
2023-05-11T01:24:19.834Z,63.66
2023-05-11T01:27:07.624Z,62.12
2023-05-11T01:29:59.219Z,61.84
2023-05-11T01:32:33.813Z,62.27
2023-05-11T01:35:06.852Z,64.17
2023-05-11T01:37:35.326Z,62.28
2023-05-11T01:40:07.689Z,62.62
2023-05-11T01:42:44.491Z,63.15
2023-05-11T01:45:14.047Z,63.18
2023-05-11T01:47:43.883Z,63.66
2023-05-11T01:50:11.529Z,63.45
2023-05-11T01:52:39.869Z,63.70
2023-05-11T01:55:08.076Z,62.88
2023-05-11T01:57:37.400Z,63.62
2023-05-11T02:00:04.493Z,63.75
2023-05-11T02:02:32.476Z,64.18
2023-05-11T02:05:01.193Z,63.97
2023-05-11T02:07:28.526Z,65.99
2023-05-11T02:09:56.908Z,65.36
2023-05-11T02:12:25.980Z,65.39
2023-05-11T02:14:54.306Z,65.07
2023-05-11T02:17:22.769Z,64.72
2023-05-11T02:19:50.852Z,65.00
2023-05-11T02:22:19.124Z,64.21
2023-05-11T02:24:47.741Z,64.35
2023-05-11T02:27:14.454Z,64.77
2023-05-11T02:29:43.512Z,64.51
2023-05-11T02:32:19.224Z,63.91
2023-05-11T02:34:54.406Z,63.65
2023-05-11T02:37:24.593Z,63.81
2023-05-11T02:39:58.833Z,63.26
2023-05-11T02:42:28.060Z,63.05
2023-05-11T02:45:04.182Z,62.50
2023-05-11T02:47:36.141Z,62.24
2023-05-11T02:50:08.200Z,62.57
2023-05-11T02:52:36.389Z,62.77
2023-05-11T02:55:07.031Z,62.33
2023-05-11T02:57:33.889Z,63.58
2023-05-11T03:00:01.346Z,65.41
2023-05-11T03:02:28.069Z,64.55
2023-05-11T03:04:54.833Z,64.56
2023-05-11T03:07:21.883Z,64.62
2023-05-11T03:09:48.951Z,65.56
2023-05-11T03:12:15.767Z,65.21
2023-05-11T03:14:43.354Z,65.83
2023-05-11T03:17:12.460Z,65.82
2023-05-11T03:19:40.504Z,67.49
2023-05-11T03:22:08.092Z,66.45
2023-05-11T03:24:35.587Z,65.50
2023-05-11T03:27:04.450Z,65.66
2023-05-11T03:29:33.124Z,67.24
2023-05-11T03:31:59.918Z,65.38
2023-05-11T03:34:26.651Z,66.12
2023-05-11T03:36:54.512Z,65.89
2023-05-11T03:39:22.240Z,65.94
2023-05-11T03:41:50.758Z,64.84
2023-05-11T03:44:19.025Z,64.08
2023-05-11T03:46:46.089Z,64.55
2023-05-11T03:49:13.792Z,63.57
2023-05-11T03:51:41.408Z,62.77
2023-05-11T03:54:08.415Z,63.00
2023-05-11T03:56:39.339Z,64.91
2023-05-11T03:59:06.400Z,68.67
2023-05-11T04:01:33.332Z,67.96
2023-05-11T04:04:00.045Z,67.74
2023-05-11T04:06:26.751Z,67.69
2023-05-11T04:08:53.448Z,66.38
2023-05-11T04:11:20.051Z,64.22
2023-05-11T04:13:46.623Z,64.75
2023-05-11T04:16:13.323Z,63.32
2023-05-11T04:18:40.077Z,64.31
2023-05-11T04:21:06.710Z,65.79
2023-05-11T04:23:33.429Z,64.38
2023-05-11T04:26:00.060Z,63.72
2023-05-11T04:28:26.796Z,64.25
2023-05-11T04:30:54.901Z,61.77
2023-05-11T04:33:21.618Z,61.96
2023-05-11T04:35:52.353Z,63.66
2023-05-11T04:38:23.144Z,62.90
2023-05-11T04:40:50.177Z,65.00
2023-05-11T04:43:17.549Z,62.69
2023-05-11T04:45:50.927Z,60.74
2023-05-11T04:48:20.506Z,62.30
2023-05-11T04:50:47.560Z,62.60
2023-05-11T04:53:14.499Z,61.25
2023-05-11T04:55:41.199Z,59.51
2023-05-11T04:58:10.581Z,59.71
2023-05-11T05:00:37.225Z,61.16
2023-05-11T05:03:04.208Z,61.08
2023-05-11T05:05:30.918Z,60.92
2023-05-11T05:07:57.563Z,59.50
2023-05-11T05:10:24.302Z,58.25
2023-05-11T05:12:50.900Z,59.79
2023-05-11T05:15:17.731Z,59.68
2023-05-11T05:17:44.393Z,60.07
2023-05-11T05:20:11.270Z,59.33
2023-05-11T05:22:37.876Z,62.88
2023-05-11T05:25:04.820Z,60.59
2023-05-11T05:27:34.084Z,62.38
2023-05-11T05:30:01.471Z,62.06
2023-05-11T05:32:28.163Z,63.10
2023-05-11T05:34:54.762Z,62.08
2023-05-11T05:37:21.388Z,61.29
2023-05-11T05:39:48.576Z,62.85
2023-05-11T05:42:15.214Z,62.66
2023-05-11T05:44:41.877Z,63.54
2023-05-11T05:47:08.484Z,60.96
2023-05-11T05:49:35.145Z,60.42
2023-05-11T05:52:01.798Z,61.32
2023-05-11T05:54:28.455Z,59.60
2023-05-11T05:56:55.045Z,60.22
2023-05-11T05:59:21.719Z,60.85
2023-05-11T06:01:48.547Z,60.96
2023-05-11T06:04:15.445Z,60.39
2023-05-11T06:06:42.158Z,59.87
2023-05-11T06:09:08.900Z,59.82
2023-05-11T06:11:35.598Z,59.63
2023-05-11T06:14:02.302Z,57.79
2023-05-11T06:16:28.944Z,58.38
2023-05-11T06:18:55.907Z,58.80
2023-05-11T06:21:22.707Z,60.26
2023-05-11T06:23:49.285Z,58.80
2023-05-11T06:26:15.998Z,60.32
2023-05-11T06:28:42.741Z,61.17
2023-05-11T06:31:09.470Z,58.38
2023-05-11T06:33:36.092Z,57.74
2023-05-11T06:36:06.726Z,57.43
2023-05-11T06:38:33.603Z,55.97
2023-05-11T06:41:00.277Z,55.49
2023-05-11T06:43:26.913Z,56.85
2023-05-11T06:45:53.703Z,55.89
2023-05-11T06:48:20.416Z,55.41
2023-05-11T06:50:47.011Z,53.88
2023-05-11T06:53:13.899Z,55.27
2023-05-11T06:55:40.670Z,55.44
2023-05-11T06:58:07.285Z,55.17
2023-05-11T07:00:34.141Z,54.23
2023-05-11T07:03:00.843Z,52.25
2023-05-11T07:05:27.537Z,51.45
2023-05-11T07:07:54.217Z,51.86
2023-05-11T07:10:21.057Z,52.48
2023-05-11T07:12:47.902Z,51.90
2023-05-11T07:15:14.609Z,51.65
2023-05-11T07:17:41.427Z,50.80
2023-05-11T07:20:08.608Z,49.99
2023-05-11T07:22:35.254Z,50.41
2023-05-11T07:25:01.909Z,52.07
2023-05-11T07:27:28.552Z,53.42
2023-05-11T07:29:55.121Z,51.00
2023-05-11T07:32:21.751Z,51.06
2023-05-11T07:34:48.541Z,49.52
2023-05-11T07:37:15.160Z,48.93
2023-05-11T07:39:41.907Z,50.51
2023-05-11T07:42:08.537Z,50.92
2023-05-11T07:44:35.868Z,49.81
2023-05-11T07:47:02.502Z,52.02
2023-05-11T07:49:39.976Z,50.19
2023-05-11T07:52:09.836Z,49.71
2023-05-11T07:54:36.779Z,51.16
2023-05-11T07:57:03.545Z,51.89
2023-05-11T07:59:30.149Z,49.72
2023-05-11T08:01:56.807Z,50.77
2023-05-11T08:04:23.795Z,49.31
2023-05-11T08:06:50.540Z,50.85
2023-05-11T08:09:17.264Z,49.15
2023-05-11T08:11:43.890Z,49.19
2023-05-11T08:14:10.480Z,51.26
2023-05-11T08:16:37.711Z,48.62
2023-05-11T08:19:04.571Z,48.79
2023-05-11T08:21:31.303Z,46.27
2023-05-11T08:23:57.926Z,45.82
2023-05-11T08:26:24.723Z,45.08
2023-05-11T08:28:51.591Z,46.79
2023-05-11T08:31:18.732Z,45.33
2023-05-11T08:33:45.644Z,48.48
2023-05-11T08:36:12.646Z,48.77
2023-05-11T08:38:39.331Z,47.46
2023-05-11T08:41:06.232Z,47.56
2023-05-11T08:43:35.391Z,46.23
2023-05-11T08:46:04.765Z,45.13
2023-05-11T08:48:32.251Z,44.32
2023-05-11T08:50:59.219Z,45.11
2023-05-11T08:53:25.857Z,45.53
2023-05-11T08:55:55.588Z,43.54
2023-05-11T08:58:22.917Z,45.95
2023-05-11T09:00:51.055Z,43.45
2023-05-11T09:03:19.179Z,44.69
2023-05-11T09:05:47.131Z,43.22
2023-05-11T09:08:15.532Z,42.45
2023-05-11T09:10:42.598Z,42.48
2023-05-11T09:13:09.428Z,42.77
2023-05-11T09:15:38.078Z,42.44
2023-05-11T09:18:05.699Z,44.77
2023-05-11T09:20:33.963Z,40.79
2023-05-11T09:23:01.506Z,40.11
2023-05-11T09:25:30.328Z,40.03
2023-05-11T09:27:59.800Z,42.18
2023-05-11T09:30:26.690Z,37.78
2023-05-11T09:32:57.603Z,38.90
2023-05-11T09:35:25.429Z,42.73
2023-05-11T09:38:10.365Z,39.24
2023-05-11T09:40:39.166Z,39.29
2023-05-11T09:43:29.870Z,40.33
2023-05-11T09:45:58.500Z,39.50
2023-05-11T09:48:30.101Z,39.21
2023-05-11T09:51:05.251Z,37.01
2023-05-11T09:53:44.039Z,38.57
2023-05-11T09:56:12.018Z,39.99
2023-05-11T09:58:46.567Z,40.04
2023-05-11T10:01:13.748Z,40.38
2023-05-11T10:03:50.707Z,39.30
2023-05-11T10:06:20.058Z,39.22
2023-05-11T10:08:48.165Z,37.78
2023-05-11T10:11:15.188Z,39.91
2023-05-11T10:13:44.009Z,38.05
2023-05-11T10:16:16.127Z,39.21
2023-05-11T10:18:43.071Z,36.80
2023-05-11T10:21:15.848Z,37.40
2023-05-11T10:23:43.216Z,37.79
2023-05-11T10:26:10.573Z,39.48
2023-05-11T10:28:37.186Z,38.24
2023-05-11T10:31:04.130Z,36.95
2023-05-11T10:33:31.000Z,37.45
2023-05-11T10:35:57.759Z,39.04
2023-05-11T10:38:25.496Z,37.06
2023-05-11T10:40:55.002Z,37.78
2023-05-11T10:43:27.460Z,38.48
2023-05-11T10:46:26.973Z,37.21
2023-05-11T10:49:11.846Z,37.36
2023-05-11T10:52:06.319Z,36.87
2023-05-11T10:54:51.264Z,38.21
2023-05-11T10:57:17.846Z,36.55
2023-05-11T11:00:24.877Z,36.06
2023-05-11T11:02:51.575Z,35.99
2023-05-11T11:05:33.493Z,35.78
2023-05-11T11:08:02.284Z,35.51
2023-05-11T11:10:37.801Z,34.79
2023-05-11T11:13:09.834Z,34.75
2023-05-11T11:15:54.759Z,34.24
2023-05-11T11:18:31.079Z,36.00
2023-05-11T11:20:59.022Z,35.04
2023-05-11T11:23:45.260Z,32.28
2023-05-11T11:26:13.643Z,33.66
2023-05-11T11:29:09.585Z,34.33
2023-05-11T11:31:37.731Z,36.58
2023-05-11T11:34:24.698Z,34.74
2023-05-11T11:36:57.390Z,35.53
2023-05-11T11:39:29.045Z,33.45
2023-05-11T11:42:12.781Z,32.60
2023-05-11T11:44:41.249Z,32.86
2023-05-11T11:47:22.029Z,36.44
2023-05-11T11:49:51.835Z,36.78
2023-05-11T11:52:27.472Z,33.88
2023-05-11T11:54:55.841Z,34.55
2023-05-11T11:57:34.616Z,33.98
2023-05-11T12:00:09.241Z,34.14
2023-05-11T12:02:43.577Z,32.39
2023-05-11T12:05:15.375Z,34.47
2023-05-11T12:07:50.490Z,34.75
2023-05-11T12:10:21.959Z,33.77
2023-05-11T12:12:52.212Z,33.24
2023-05-11T12:15:29.686Z,34.89
2023-05-11T12:17:56.859Z,34.20
2023-05-11T12:20:23.902Z,35.43
2023-05-11T12:22:51.069Z,35.00
2023-05-11T12:25:22.266Z,35.42
2023-05-11T12:27:55.769Z,34.70
2023-05-11T12:30:24.541Z,35.60
2023-05-11T12:32:56.469Z,32.86
2023-05-11T12:35:34.219Z,35.78
2023-05-11T12:38:02.143Z,35.49
2023-05-11T12:40:28.896Z,35.40
2023-05-11T12:42:57.650Z,33.74
2023-05-11T12:45:26.277Z,32.24
2023-05-11T12:47:54.636Z,33.21
2023-05-11T12:50:22.076Z,32.27
2023-05-11T12:52:49.591Z,35.11
2023-05-11T12:55:31.513Z,33.52
2023-05-11T12:58:35.253Z,33.13
2023-05-11T13:01:02.212Z,32.30
2023-05-11T13:03:31.337Z,32.83
2023-05-11T13:06:08.153Z,31.40
2023-05-11T13:08:44.900Z,32.34
2023-05-11T13:11:23.115Z,30.69
2023-05-11T13:13:50.391Z,31.12
2023-05-11T13:16:32.592Z,32.18
2023-05-11T13:19:06.317Z,32.41
2023-05-11T13:21:33.739Z,33.98
2023-05-11T13:24:01.163Z,32.78
2023-05-11T13:26:30.682Z,33.63
2023-05-11T13:29:09.528Z,30.89
2023-05-11T13:31:48.945Z,34.07
2023-05-11T13:34:16.119Z,31.08
2023-05-11T13:36:43.283Z,33.14
2023-05-11T13:39:09.918Z,32.57
2023-05-11T13:41:36.564Z,32.72
2023-05-11T13:44:03.653Z,33.03
2023-05-11T13:46:30.343Z,31.92
2023-05-11T13:48:56.939Z,31.51
2023-05-11T13:51:23.661Z,33.30
2023-05-11T13:53:50.252Z,31.27
2023-05-11T13:56:16.993Z,32.19
2023-05-11T13:58:43.618Z,30.88
2023-05-11T14:01:10.328Z,31.67
2023-05-11T14:03:37.079Z,32.12
2023-05-11T14:06:04.000Z,31.97
2023-05-11T14:08:30.628Z,31.71
2023-05-11T14:10:57.246Z,31.42
2023-05-11T14:13:23.835Z,32.62
2023-05-11T14:15:51.709Z,32.43
2023-05-11T14:18:18.865Z,32.78
2023-05-11T14:20:45.561Z,32.79
2023-05-11T14:23:12.147Z,33.76
2023-05-11T14:25:38.768Z,34.33
2023-05-11T14:28:05.412Z,33.25
2023-05-11T14:30:32.059Z,33.79
2023-05-11T14:32:58.710Z,33.53
2023-05-11T14:35:25.377Z,33.42
2023-05-11T14:37:52.030Z,35.25
2023-05-11T14:40:18.698Z,32.74
2023-05-11T14:42:45.296Z,32.38
2023-05-11T14:45:12.004Z,32.40
2023-05-11T14:47:38.908Z,33.72
2023-05-11T14:50:06.241Z,32.70
2023-05-11T14:52:32.857Z,32.20
2023-05-11T14:54:59.453Z,35.38
2023-05-11T14:57:26.297Z,34.72
2023-05-11T14:59:59.654Z,34.24
2023-05-11T15:02:27.506Z,34.02
2023-05-11T15:04:54.405Z,34.05
2023-05-11T15:07:21.061Z,34.57
2023-05-11T15:09:47.658Z,33.76
2023-05-11T15:12:14.326Z,34.45
2023-05-11T15:14:40.972Z,34.23
2023-05-11T15:17:07.816Z,34.40
2023-05-11T15:19:34.563Z,34.54
2023-05-11T15:22:01.309Z,35.88
2023-05-11T15:24:27.909Z,34.82
2023-05-11T15:26:54.607Z,34.92
2023-05-11T15:29:21.247Z,35.66
2023-05-11T15:31:47.874Z,35.03
2023-05-11T15:34:15.273Z,35.64
2023-05-11T15:36:41.994Z,35.33
2023-05-11T15:39:08.648Z,36.93
2023-05-11T15:41:35.316Z,36.26
2023-05-11T15:44:01.932Z,36.66
2023-05-11T15:46:28.696Z,35.65
2023-05-11T15:48:57.550Z,37.23
2023-05-11T15:51:25.741Z,36.46
2023-05-11T15:53:52.324Z,35.83
2023-05-11T15:56:20.290Z,37.06
2023-05-11T15:58:46.963Z,34.94
2023-05-11T16:01:13.584Z,35.99
2023-05-11T16:03:40.235Z,35.21
2023-05-11T16:06:07.189Z,36.64
2023-05-11T16:08:34.814Z,36.74
2023-05-11T16:11:01.403Z,37.34
2023-05-11T16:13:28.002Z,38.21
2023-05-11T16:15:54.655Z,38.46
2023-05-11T16:18:21.529Z,36.29
2023-05-11T16:20:48.589Z,38.66
2023-05-11T16:23:15.287Z,38.61
2023-05-11T16:25:41.990Z,39.06
2023-05-11T16:28:08.934Z,39.48
2023-05-11T16:30:36.355Z,40.37
2023-05-11T16:33:03.110Z,37.56
2023-05-11T16:35:30.036Z,39.68
2023-05-11T16:37:59.559Z,38.92
2023-05-11T16:40:26.184Z,39.23
2023-05-11T16:42:53.577Z,39.95
2023-05-11T16:45:20.563Z,41.33
2023-05-11T16:47:47.635Z,40.00
2023-05-11T16:50:14.805Z,39.51
2023-05-11T16:52:42.630Z,39.95
2023-05-11T16:55:09.844Z,39.35
2023-05-11T16:57:36.635Z,39.34
2023-05-11T17:00:03.764Z,40.66
2023-05-11T17:02:30.418Z,41.64
2023-05-11T17:04:57.040Z,42.79
2023-05-11T17:07:25.540Z,44.43
2023-05-11T17:09:52.208Z,43.33
2023-05-11T17:12:18.936Z,45.38
2023-05-11T17:14:45.564Z,46.83
2023-05-11T17:17:12.213Z,46.82
2023-05-11T17:19:38.787Z,47.23
2023-05-11T17:22:05.781Z,49.15
2023-05-11T17:24:32.592Z,49.99
2023-05-11T17:26:59.230Z,49.40
2023-05-11T17:29:25.867Z,50.51
2023-05-11T17:31:52.872Z,50.28
2023-05-11T17:34:20.991Z,53.96
2023-05-11T17:36:48.834Z,51.91
2023-05-11T17:39:15.475Z,55.59
2023-05-11T17:41:42.133Z,50.46
2023-05-11T17:44:09.199Z,52.08
2023-05-11T17:46:36.059Z,56.71
2023-05-11T17:49:02.732Z,53.34
2023-05-11T17:51:29.305Z,53.30
2023-05-11T17:53:55.912Z,52.15
2023-05-11T17:56:22.604Z,52.29
2023-05-11T17:58:50.399Z,50.87
2023-05-11T18:01:17.365Z,48.77
2023-05-11T18:03:44.118Z,48.60
2023-05-11T18:06:10.879Z,49.48
2023-05-11T18:08:37.677Z,46.84
2023-05-11T18:11:05.430Z,46.71
2023-05-11T18:13:32.026Z,47.87
2023-05-11T18:15:58.712Z,49.05
2023-05-11T18:18:26.076Z,51.03
2023-05-11T18:20:52.946Z,50.34
2023-05-11T18:23:20.331Z,52.47
2023-05-11T18:25:46.965Z,51.77
2023-05-11T18:28:13.636Z,52.14
2023-05-11T18:30:40.460Z,52.84
2023-05-11T18:33:07.167Z,51.61
2023-05-11T18:35:33.815Z,51.90
2023-05-11T18:38:00.430Z,53.28
2023-05-11T18:40:27.006Z,54.09
2023-05-11T18:42:53.671Z,55.66
2023-05-11T18:45:20.241Z,55.61
2023-05-11T18:47:46.856Z,55.22
2023-05-11T18:50:13.809Z,55.62
2023-05-11T18:52:40.502Z,57.84
2023-05-11T18:55:09.130Z,59.30
2023-05-11T18:57:35.875Z,58.59
2023-05-11T19:00:02.513Z,58.13
2023-05-11T19:02:29.239Z,59.82
2023-05-11T19:04:55.902Z,59.87
2023-05-11T19:07:22.648Z,59.40
2023-05-11T19:09:49.496Z,60.81
2023-05-11T19:12:18.792Z,62.88
2023-05-11T19:14:47.411Z,63.05
2023-05-11T19:17:14.335Z,62.24
2023-05-11T19:19:40.986Z,62.22
2023-05-11T19:22:09.208Z,62.92
2023-05-11T19:24:36.164Z,64.15
2023-05-11T19:27:07.234Z,64.46
2023-05-11T19:29:34.881Z,63.95
2023-05-11T19:32:01.916Z,65.57
2023-05-11T19:34:28.670Z,65.94
2023-05-11T19:36:55.321Z,69.26
2023-05-11T19:39:22.126Z,70.03
2023-05-11T19:41:48.799Z,70.97
2023-05-11T19:44:15.507Z,71.55
2023-05-11T19:46:42.392Z,71.66
2023-05-11T19:49:09.085Z,71.93
2023-05-11T19:51:35.663Z,73.19
2023-05-11T19:54:02.319Z,71.09
2023-05-11T19:56:28.968Z,70.46
2023-05-11T19:58:55.586Z,71.54
2023-05-11T20:01:22.307Z,71.14
2023-05-11T20:03:49.090Z,71.70
2023-05-11T20:06:15.855Z,72.64
2023-05-11T20:08:42.622Z,72.39
2023-05-11T20:11:09.253Z,71.59
2023-05-11T20:13:35.958Z,72.35
2023-05-11T20:16:02.619Z,71.82
2023-05-11T20:18:29.324Z,72.84
2023-05-11T20:20:55.996Z,75.50
2023-05-11T20:23:22.646Z,73.89
2023-05-11T20:25:49.285Z,75.17
2023-05-11T20:28:16.135Z,75.01
2023-05-11T20:30:42.801Z,74.21
2023-05-11T20:35:39.167Z,76.97
2023-05-11T20:38:05.783Z,77.90
2023-05-11T20:40:32.412Z,78.08
2023-05-11T20:42:59.082Z,77.33
2023-05-11T20:45:25.740Z,77.32
2023-05-11T20:47:52.567Z,78.29
2023-05-11T20:50:19.531Z,77.93
2023-05-11T20:52:46.355Z,79.21
2023-05-11T20:55:12.996Z,78.55
2023-05-11T20:57:39.581Z,79.93
2023-05-11T21:00:07.042Z,80.71
2023-05-11T21:02:33.835Z,84.02
2023-05-11T21:05:00.556Z,82.53
2023-05-11T21:07:28.495Z,83.24
2023-05-11T21:09:55.244Z,83.53
2023-05-11T21:12:21.978Z,80.22
2023-05-11T21:14:48.602Z,83.74
2023-05-11T21:17:15.307Z,83.72
2023-05-11T21:19:41.996Z,83.13
2023-05-11T21:22:08.627Z,82.35
2023-05-11T21:24:35.695Z,80.67
2023-05-11T21:27:02.400Z,79.06
2023-05-11T21:29:29.264Z,80.79
2023-05-11T21:31:55.867Z,81.52
2023-05-11T21:34:22.533Z,81.20
2023-05-11T21:36:49.246Z,81.05
2023-05-11T21:39:15.971Z,78.44
2023-05-11T21:41:42.564Z,79.20
2023-05-11T21:44:09.324Z,78.78
2023-05-11T21:46:36.050Z,78.39
2023-05-11T21:49:02.686Z,78.35
2023-05-11T21:51:29.299Z,79.13
2023-05-11T21:53:55.926Z,79.10
2023-05-11T21:56:22.606Z,79.86
2023-05-11T21:58:49.242Z,80.31
2023-05-11T22:01:16.706Z,80.47
2023-05-11T22:03:43.534Z,81.79
2023-05-11T22:06:10.440Z,80.48
2023-05-11T22:08:37.249Z,79.68
2023-05-11T22:11:03.897Z,80.61
2023-05-11T22:13:30.528Z,80.96
2023-05-11T22:15:57.181Z,80.73
2023-05-11T22:18:23.976Z,80.39
2023-05-11T22:20:50.694Z,80.33
2023-05-11T22:23:17.411Z,81.73
2023-05-11T22:25:43.998Z,88.28
2023-05-11T22:28:10.684Z,91.17
2023-05-11T22:30:37.839Z,88.57
2023-05-11T22:33:04.493Z,86.28
2023-05-11T22:35:31.220Z,89.96
2023-05-11T22:37:57.865Z,88.65
2023-05-11T22:40:25.044Z,85.59
2023-05-11T22:42:51.732Z,85.16
2023-05-11T22:45:18.435Z,89.29
2023-05-11T22:47:45.228Z,88.30
2023-05-11T22:50:11.872Z,86.80
2023-05-11T22:52:38.797Z,86.46
2023-05-11T22:55:06.223Z,86.10
2023-05-11T22:57:32.812Z,86.59
2023-05-11T22:59:59.426Z,86.58
2023-05-11T23:02:26.172Z,88.91
2023-05-11T23:04:52.925Z,87.21
2023-05-11T23:07:19.845Z,88.58
2023-05-11T23:09:46.836Z,88.52
2023-05-11T23:12:13.490Z,88.73
2023-05-11T23:14:40.129Z,88.29
2023-05-11T23:17:06.813Z,90.31
2023-05-11T23:19:33.504Z,89.71
2023-05-11T23:22:00.225Z,88.96
2023-05-11T23:24:26.846Z,88.61
2023-05-11T23:26:53.534Z,88.12
2023-05-11T23:29:20.624Z,88.58
2023-05-11T23:31:47.317Z,88.85
2023-05-11T23:34:14.084Z,93.34
2023-05-11T23:36:40.717Z,94.55
2023-05-11T23:39:07.511Z,94.20
2023-05-11T23:41:34.195Z,92.63
2023-05-11T23:44:00.784Z,90.03
2023-05-11T23:46:27.465Z,91.58
2023-05-11T23:48:54.121Z,89.65
2023-05-11T23:51:20.693Z,89.72
2023-05-11T23:53:47.373Z,90.12
2023-05-11T23:56:14.052Z,90.25
2023-05-11T23:58:40.683Z,90.68
